createdAt,value
2024-04-30T00:00:00.617Z,101500
2024-04-30T00:10:00.554Z,101530
2024-04-30T00:20:00.761Z,101520
2024-04-30T00:30:00.645Z,101530
2024-04-30T00:40:00.668Z,101550
2024-04-30T00:50:00.365Z,101510
2024-04-30T01:00:00.387Z,101500
2024-04-30T01:10:00.684Z,101480
2024-04-30T01:20:00.377Z,101510
2024-04-30T01:30:00.438Z,101520
2024-04-30T01:40:00.524Z,101490
2024-04-30T01:50:00.375Z,101530
2024-04-30T02:00:00.531Z,101510
2024-04-30T02:10:00.607Z,101500
2024-04-30T02:20:00.513Z,101500
2024-04-30T02:30:00.669Z,101490
2024-04-30T02:40:00.614Z,101500
2024-04-30T02:50:00.390Z,101470
2024-04-30T03:00:00.665Z,101480
2024-04-30T03:10:00.653Z,101470
2024-04-30T03:20:00.363Z,101470
2024-04-30T03:30:00.411Z,101470
2024-04-30T03:40:00.488Z,101460
2024-04-30T03:50:02.262Z,101450
2024-04-30T04:00:00.426Z,101460
2024-04-30T04:10:00.570Z,101460
2024-04-30T04:20:00.440Z,101460
2024-04-30T04:30:00.396Z,101480
2024-04-30T04:40:00.574Z,101460
2024-04-30T04:50:00.421Z,101460
2024-04-30T05:00:00.507Z,101440
2024-04-30T05:10:00.480Z,101460
2024-04-30T05:20:00.459Z,101460
2024-04-30T05:30:00.381Z,101450
2024-04-30T05:40:00.442Z,101430
2024-04-30T05:50:00.413Z,101440
2024-04-30T06:00:00.623Z,101450
2024-04-30T06:10:00.468Z,101420
2024-04-30T06:20:00.653Z,101420
2024-04-30T06:30:00.437Z,101420
2024-04-30T06:40:00.490Z,101400
2024-04-30T06:50:00.459Z,101430
2024-04-30T07:00:00.553Z,101420
2024-04-30T07:10:00.462Z,101400
2024-04-30T07:20:00.472Z,101400
2024-04-30T07:30:00.393Z,101430
2024-04-30T07:40:00.516Z,101420
2024-04-30T07:50:00.439Z,101420
2024-04-30T08:00:00.406Z,101430
2024-04-30T08:10:00.534Z,101420
2024-04-30T08:20:00.398Z,101420
2024-04-30T08:30:00.397Z,101420
2024-04-30T08:40:00.385Z,101390
2024-04-30T08:50:05.975Z,101360
2024-04-30T09:00:00.391Z,101380
2024-04-30T09:10:00.368Z,101380
2024-04-30T09:20:00.373Z,101360
2024-04-30T09:30:00.465Z,101380
2024-04-30T09:40:00.409Z,101360
2024-04-30T09:50:00.502Z,101370
2024-04-30T10:00:00.625Z,101340
2024-04-30T10:10:00.417Z,101320
2024-04-30T10:20:00.394Z,101310
2024-04-30T10:30:00.544Z,101310
2024-04-30T10:40:00.381Z,101280
2024-04-30T10:50:11.950Z,101290
2024-04-30T11:00:00.393Z,101300
2024-04-30T11:10:00.442Z,101310
2024-04-30T11:20:00.465Z,101260
2024-04-30T11:30:00.511Z,101270
2024-04-30T11:40:00.431Z,101250
2024-04-30T11:50:00.424Z,101240
2024-04-30T12:00:00.419Z,101220
2024-04-30T12:10:00.401Z,101220
2024-04-30T12:20:00.417Z,101200
2024-04-30T12:30:00.460Z,101190
2024-04-30T12:40:01.687Z,101190
2024-04-30T12:50:00.373Z,101150
2024-04-30T13:00:00.451Z,101130
2024-04-30T13:10:00.420Z,101150
2024-04-30T13:20:00.480Z,101130
2024-04-30T13:30:00.388Z,101120
2024-04-30T13:40:00.396Z,101100
2024-04-30T13:50:00.377Z,101090
2024-04-30T14:00:00.433Z,101080
2024-04-30T14:10:00.390Z,101080
2024-04-30T14:20:00.536Z,101060
2024-04-30T14:30:00.372Z,101070
2024-04-30T14:40:00.420Z,101040
2024-04-30T14:50:00.451Z,101050
2024-04-30T15:00:00.390Z,101040
2024-04-30T15:10:00.385Z,101050
2024-04-30T15:20:00.371Z,101060
2024-04-30T15:30:00.409Z,101020
2024-04-30T15:40:00.431Z,101040
2024-04-30T15:50:00.378Z,101000
2024-04-30T16:00:00.440Z,101000
2024-04-30T16:10:00.385Z,100990
2024-04-30T16:20:00.404Z,100980
2024-04-30T16:30:00.508Z,100950
2024-04-30T16:40:00.527Z,100960
2024-04-30T16:50:00.407Z,100950
2024-04-30T17:00:00.429Z,100950
2024-04-30T17:10:00.586Z,100940
2024-04-30T17:20:00.377Z,100950
2024-04-30T17:30:00.425Z,100930
2024-04-30T17:40:00.539Z,100940
2024-04-30T17:50:00.379Z,100940
2024-04-30T18:00:00.544Z,100940
2024-04-30T18:10:00.499Z,100930
2024-04-30T18:20:00.361Z,100950
2024-04-30T18:30:00.464Z,100930
2024-04-30T18:40:00.586Z,100940
2024-04-30T18:50:00.364Z,100940
2024-04-30T19:00:00.429Z,100950
2024-04-30T19:10:00.551Z,100950
2024-04-30T19:20:00.394Z,100940
2024-04-30T19:30:00.506Z,100940
2024-04-30T19:40:00.641Z,100950
2024-04-30T19:50:00.507Z,100930
2024-04-30T20:00:00.498Z,100960
2024-04-30T20:10:00.465Z,100930
2024-04-30T20:20:00.430Z,100930
2024-04-30T20:30:00.369Z,100940
2024-04-30T20:40:00.558Z,100930
2024-04-30T20:50:00.451Z,100900
2024-04-30T21:00:00.508Z,100900
2024-04-30T21:10:00.482Z,100920
2024-04-30T21:20:00.371Z,100910
2024-04-30T21:30:00.413Z,100900
2024-04-30T21:40:00.525Z,100890
2024-04-30T21:50:00.421Z,100850
2024-04-30T22:00:00.374Z,100870
2024-04-30T22:10:00.597Z,100850
2024-04-30T22:20:00.421Z,100860
2024-04-30T22:30:08.801Z,100840
2024-04-30T22:40:00.573Z,100850
2024-04-30T22:50:00.392Z,100860
2024-04-30T23:00:00.497Z,100850
2024-04-30T23:10:00.498Z,100810
2024-04-30T23:20:00.400Z,100830
2024-04-30T23:30:00.436Z,100820
2024-04-30T23:40:00.679Z,100810
2024-04-30T23:50:00.432Z,100790
